createdAt,value
2019-05-03T00:00:06.852Z,4.00
2019-05-03T00:03:13.691Z,3.40
2019-05-03T00:06:18.822Z,3.77
2019-05-03T00:09:23.957Z,3.30
2019-05-03T00:12:29.139Z,2.77
2019-05-03T00:16:05.261Z,3.90
2019-05-03T00:19:10.373Z,4.20
2019-05-03T00:22:15.279Z,3.93
2019-05-03T00:25:21.988Z,4.07
2019-05-03T00:28:27.006Z,5.40
2019-05-03T00:31:31.975Z,6.50
2019-05-03T00:34:41.814Z,4.00
2019-05-03T00:37:48.921Z,2.90
2019-05-03T00:40:53.745Z,3.33
2019-05-03T00:43:58.565Z,2.73
2019-05-03T00:47:03.501Z,4.40
2019-05-03T00:50:08.819Z,4.73
2019-05-03T00:53:13.900Z,4.17
2019-05-03T00:56:18.976Z,4.07
2019-05-03T00:59:23.957Z,5.50
2019-05-03T01:02:28.985Z,2.80
2019-05-03T01:05:34.051Z,2.97
2019-05-03T01:08:39.136Z,2.93
2019-05-03T01:11:44.125Z,3.03
2019-05-03T01:14:51.552Z,2.50
2019-05-03T01:17:56.724Z,3.17
2019-05-03T01:21:02.292Z,3.20
2019-05-03T01:24:07.553Z,2.93
2019-05-03T01:27:12.705Z,3.53
2019-05-03T01:30:17.667Z,3.57
2019-05-03T01:33:22.710Z,3.20
2019-05-03T01:36:27.596Z,3.87
2019-05-03T01:39:32.567Z,3.67
2019-05-03T01:42:37.570Z,4.20
2019-05-03T01:45:42.754Z,4.77
2019-05-03T01:48:57.525Z,5.17
2019-05-03T01:52:21.921Z,4.40
2019-05-03T01:55:46.539Z,3.07
2019-05-03T01:58:52.412Z,2.83
2019-05-03T02:02:03.838Z,2.70
2019-05-03T02:05:39.940Z,3.30
2019-05-03T02:08:44.957Z,3.37
2019-05-03T02:11:49.900Z,2.93
2019-05-03T02:14:54.810Z,3.27
2019-05-03T02:17:59.851Z,3.17
2019-05-03T02:21:04.905Z,4.80
2019-05-03T02:24:11.818Z,3.67
2019-05-03T02:27:16.878Z,3.40
2019-05-03T02:30:24.708Z,3.70
2019-05-03T02:33:28.562Z,3.07
2019-05-03T02:36:33.950Z,4.97
2019-05-03T02:39:38.806Z,5.00
2019-05-03T02:42:46.596Z,5.57
2019-05-03T02:46:13.185Z,3.30
2019-05-03T02:49:25.764Z,6.90
2019-05-03T02:52:37.661Z,2.70
2019-05-03T02:55:45.383Z,4.50
2019-05-03T02:58:49.519Z,4.20
2019-05-03T03:01:55.913Z,3.10
2019-05-03T03:05:00.980Z,4.93
2019-05-03T03:08:06.136Z,3.90
2019-05-03T03:11:11.076Z,3.40
2019-05-03T03:14:17.060Z,6.23
2019-05-03T03:17:25.454Z,4.33
2019-05-03T03:20:35.570Z,5.70
2019-05-03T03:24:06.493Z,5.67
2019-05-03T03:27:16.335Z,4.63
2019-05-03T03:30:48.606Z,4.10
2019-05-03T03:33:52.809Z,6.57
2019-05-03T03:37:04.392Z,6.53
2019-05-03T03:40:06.151Z,4.40
2019-05-03T03:43:15.559Z,4.80
2019-05-03T03:46:21.982Z,5.30
2019-05-03T03:49:28.743Z,6.60
2019-05-03T03:52:36.012Z,6.57
2019-05-03T03:55:45.822Z,4.43
2019-05-03T03:58:50.238Z,7.90
2019-05-03T04:01:55.914Z,6.33
2019-05-03T04:05:00.992Z,5.77
2019-05-03T04:08:06.104Z,3.70
2019-05-03T04:11:11.285Z,5.70
2019-05-03T04:14:19.928Z,10.20
2019-05-03T04:17:56.885Z,5.10
2019-05-03T04:21:02.190Z,3.63
2019-05-03T04:24:07.190Z,8.87
2019-05-03T04:27:19.830Z,6.13
2019-05-03T04:30:19.399Z,4.83
2019-05-03T04:33:26.908Z,5.30
2019-05-03T04:36:31.281Z,6.63
2019-05-03T04:39:36.342Z,4.63
2019-05-03T04:42:41.152Z,4.20
2019-05-03T04:46:01.012Z,5.37
2019-05-03T04:49:06.009Z,5.10
2019-05-03T04:52:11.159Z,6.77
2019-05-03T04:55:16.378Z,6.30
2019-05-03T04:58:21.472Z,5.10
2019-05-03T05:01:26.444Z,5.07
2019-05-03T05:04:31.521Z,4.60
2019-05-03T05:07:36.673Z,5.50
2019-05-03T05:10:41.562Z,4.60
2019-05-03T05:13:47.070Z,4.17
2019-05-03T05:16:52.036Z,6.00
2019-05-03T05:20:16.061Z,5.13
2019-05-03T05:23:21.228Z,5.07
2019-05-03T05:26:28.169Z,6.80
2019-05-03T05:29:34.640Z,5.00
2019-05-03T05:32:39.963Z,5.70
2019-05-03T05:35:44.959Z,6.50
2019-05-03T05:38:50.251Z,4.50
2019-05-03T05:41:55.478Z,6.30
2019-05-03T05:45:00.486Z,4.93
2019-05-03T05:48:09.115Z,4.00
2019-05-03T05:51:15.993Z,4.90
2019-05-03T05:54:20.726Z,4.33
2019-05-03T05:57:46.336Z,4.58
2019-05-03T06:01:25.324Z,3.63
2019-05-03T06:04:30.337Z,5.53
2019-05-03T06:07:54.871Z,8.67
2019-05-03T06:11:21.452Z,3.30
2019-05-03T06:14:45.503Z,2.20
2019-05-03T06:17:57.990Z,2.20
2019-05-03T06:21:22.195Z,3.27
2019-05-03T06:24:31.907Z,3.23
2019-05-03T06:27:38.541Z,1.67
2019-05-03T06:31:08.553Z,1.43
2019-05-03T06:34:14.964Z,2.10
2019-05-03T06:37:22.159Z,1.07
2019-05-03T06:40:27.306Z,1.43
2019-05-03T06:43:32.285Z,1.10
2019-05-03T06:46:45.488Z,1.43
2019-05-03T06:49:51.067Z,1.60
2019-05-03T06:52:59.834Z,4.80
2019-05-03T06:56:04.031Z,4.33
2019-05-03T06:59:14.419Z,4.50
2019-05-03T07:02:41.349Z,1.33
2019-05-03T07:06:04.498Z,0.80
2019-05-03T07:09:17.899Z,0.70
2019-05-03T07:12:24.902Z,1.97
2019-05-03T07:15:29.569Z,1.00
2019-05-03T07:18:35.276Z,1.60
2019-05-03T07:21:40.242Z,0.90
2019-05-03T07:24:47.312Z,1.40
2019-05-03T07:27:52.432Z,1.43
2019-05-03T07:30:57.389Z,1.30
2019-05-03T07:34:02.458Z,0.90
2019-05-03T07:37:08.014Z,3.23
2019-05-03T07:40:14.857Z,1.90
2019-05-03T07:43:19.888Z,1.60
2019-05-03T07:46:25.024Z,8.33
2019-05-03T07:49:29.972Z,2.47
2019-05-03T07:52:34.917Z,2.80
2019-05-03T07:55:54.672Z,2.33
2019-05-03T07:59:04.017Z,0.70
2019-05-03T08:02:08.654Z,0.90
2019-05-03T08:05:15.495Z,3.67
2019-05-03T08:08:20.857Z,0.70
2019-05-03T08:11:25.738Z,0.70
2019-05-03T08:14:30.749Z,0.83
2019-05-03T08:17:35.902Z,1.37
2019-05-03T08:20:41.048Z,0.80
2019-05-03T08:23:46.228Z,0.60
2019-05-03T08:26:51.257Z,0.80
2019-05-03T08:29:56.364Z,0.80
2019-05-03T08:33:20.694Z,0.80
2019-05-03T08:36:25.787Z,0.50
2019-05-03T08:39:30.960Z,1.00
2019-05-03T08:42:35.929Z,0.80
2019-05-03T08:45:41.199Z,1.23
2019-05-03T08:48:46.405Z,0.70
2019-05-03T08:51:51.487Z,2.50
2019-05-03T08:54:56.797Z,1.27
2019-05-03T08:58:01.734Z,1.10
2019-05-03T09:01:07.182Z,0.80
2019-05-03T09:04:12.193Z,0.87
2019-05-03T09:07:17.429Z,0.60
2019-05-03T09:10:30.226Z,0.93
2019-05-03T09:13:48.625Z,0.60
2019-05-03T09:16:55.425Z,0.70
2019-05-03T09:20:00.024Z,1.63
2019-05-03T09:23:05.583Z,0.50
2019-05-03T09:26:10.693Z,0.80
2019-05-03T09:29:15.930Z,0.60
2019-05-03T09:32:20.842Z,1.03
2019-05-03T09:35:30.477Z,2.00
2019-05-03T09:38:34.878Z,0.60
2019-05-03T09:41:39.805Z,0.93
2019-05-03T09:44:45.156Z,0.60
2019-05-03T09:47:50.514Z,1.37
2019-05-03T09:50:55.762Z,2.10
2019-05-03T09:54:07.704Z,0.70
2019-05-03T09:57:12.897Z,0.60
2019-05-03T10:00:18.911Z,0.80
2019-05-03T10:03:24.272Z,0.60
2019-05-03T10:06:29.217Z,0.83
2019-05-03T10:09:35.357Z,0.60
2019-05-03T10:12:40.585Z,0.87
2019-05-03T10:15:45.807Z,0.60
2019-05-03T10:18:50.679Z,0.83
2019-05-03T10:21:55.654Z,0.80
2019-05-03T10:25:00.768Z,4.30
2019-05-03T10:28:05.851Z,0.60
2019-05-03T10:31:11.057Z,0.50
2019-05-03T10:34:15.934Z,0.90
2019-05-03T10:37:30.899Z,0.77
2019-05-03T10:40:35.950Z,0.60
2019-05-03T10:43:41.143Z,0.63
2019-05-03T10:46:46.127Z,1.00
2019-05-03T10:49:51.687Z,0.60
2019-05-03T10:53:07.816Z,0.80
2019-05-03T10:56:23.284Z,0.60
2019-05-03T10:59:26.591Z,1.90
2019-05-03T11:02:50.453Z,2.00
2019-05-03T11:05:55.575Z,1.13
2019-05-03T11:09:02.368Z,1.10
2019-05-03T11:12:08.618Z,2.57
2019-05-03T11:15:15.061Z,1.20
2019-05-03T11:18:20.171Z,1.40
2019-05-03T11:21:28.881Z,0.93
2019-05-03T11:24:32.080Z,3.27
2019-05-03T11:27:55.164Z,3.27
2019-05-03T11:31:19.011Z,1.63
2019-05-03T11:34:26.845Z,2.93
2019-05-03T11:37:50.833Z,1.33
2019-05-03T11:40:56.109Z,2.53
2019-05-03T11:44:20.139Z,3.83
2019-05-03T11:47:27.524Z,3.80
2019-05-03T11:50:32.098Z,4.27
2019-05-03T11:53:37.494Z,1.83
2019-05-03T11:56:42.556Z,2.23
2019-05-03T11:59:47.537Z,1.20
2019-05-03T12:03:10.552Z,1.70
2019-05-03T12:06:16.058Z,1.30
2019-05-03T12:09:21.189Z,1.30
2019-05-03T12:12:30.358Z,1.50
2019-05-03T12:15:35.677Z,1.10
2019-05-03T12:18:52.215Z,3.93
2019-05-03T12:21:50.654Z,2.07
2019-05-03T12:24:56.802Z,1.00
2019-05-03T12:28:05.644Z,0.93
2019-05-03T12:31:24.259Z,1.27
2019-05-03T12:34:16.180Z,1.07
2019-05-03T12:37:21.193Z,0.70
2019-05-03T12:40:26.432Z,0.67
2019-05-03T12:43:31.296Z,0.80
2019-05-03T12:46:36.485Z,0.93
2019-05-03T12:49:41.470Z,0.77
2019-05-03T12:53:05.436Z,1.43
2019-05-03T12:56:13.083Z,0.80
2019-05-03T12:59:40.526Z,0.80
2019-05-03T13:03:10.422Z,0.90
2019-05-03T13:06:15.389Z,1.67
2019-05-03T13:09:20.247Z,1.43
2019-05-03T13:12:26.857Z,2.03
2019-05-03T13:15:32.010Z,1.50
2019-05-03T13:18:37.073Z,1.20
2019-05-03T13:21:42.287Z,0.97
2019-05-03T13:24:47.157Z,2.23
2019-05-03T13:27:54.653Z,1.40
2019-05-03T13:30:59.434Z,0.93
2019-05-03T13:34:05.587Z,1.40
2019-05-03T13:37:10.878Z,1.83
2019-05-03T13:40:16.148Z,1.33
2019-05-03T13:43:21.014Z,1.30
2019-05-03T13:46:26.418Z,1.27
2019-05-03T13:49:31.473Z,1.33
2019-05-03T13:52:36.588Z,1.63
2019-05-03T13:55:42.059Z,1.50
2019-05-03T13:58:47.066Z,0.90
2019-05-03T14:01:54.392Z,1.67
2019-05-03T14:04:58.953Z,0.80
2019-05-03T14:08:05.076Z,1.03
2019-05-03T14:11:10.310Z,1.37
2019-05-03T14:14:15.406Z,0.80
2019-05-03T14:17:20.311Z,0.70
2019-05-03T14:20:35.111Z,0.83
2019-05-03T14:23:58.760Z,0.73
2019-05-03T14:27:05.546Z,1.07
2019-05-03T14:30:11.693Z,0.70
2019-05-03T14:33:16.996Z,1.10
2019-05-03T14:36:22.182Z,1.23
2019-05-03T14:39:27.868Z,1.02
2019-05-03T14:42:32.878Z,0.70
2019-05-03T14:45:38.001Z,1.97
2019-05-03T14:48:45.690Z,1.37
2019-05-03T14:51:50.818Z,1.53
2019-05-03T14:55:00.122Z,5.67
2019-05-03T14:58:25.860Z,1.67
2019-05-03T15:01:49.758Z,1.67
2019-05-03T15:04:54.940Z,1.13
2019-05-03T15:07:59.881Z,1.20
2019-05-03T15:11:05.341Z,1.73
2019-05-03T15:14:10.441Z,1.50
2019-05-03T15:17:15.368Z,1.57
2019-05-03T15:20:20.365Z,1.70
2019-05-03T15:23:25.628Z,1.20
2019-05-03T15:26:35.359Z,1.40
2019-05-03T15:29:40.080Z,2.30
2019-05-03T15:32:57.107Z,1.83
2019-05-03T15:35:51.234Z,1.50
2019-05-03T15:38:55.951Z,1.40
2019-05-03T15:42:00.883Z,1.00
2019-05-03T15:45:26.434Z,1.20
2019-05-03T15:48:35.200Z,1.23
2019-05-03T15:51:40.095Z,1.13
2019-05-03T15:54:45.294Z,1.83
2019-05-03T15:57:50.280Z,1.50
2019-05-03T16:00:56.169Z,1.83
2019-05-03T16:04:01.790Z,3.23
2019-05-03T16:07:06.964Z,3.47
2019-05-03T16:10:12.275Z,2.90
2019-05-03T16:13:17.182Z,2.13
2019-05-03T16:16:22.359Z,6.30
2019-05-03T16:19:27.336Z,3.00
2019-05-03T16:22:32.415Z,2.13
2019-05-03T16:25:37.497Z,2.80
2019-05-03T16:28:56.793Z,4.10
2019-05-03T16:32:01.846Z,1.83
2019-05-03T16:35:06.913Z,2.70
2019-05-03T16:38:12.031Z,3.40
2019-05-03T16:41:17.934Z,1.80
2019-05-03T16:44:24.344Z,2.47
2019-05-03T16:47:29.270Z,2.70
2019-05-03T16:50:34.650Z,1.53
2019-05-03T16:53:39.958Z,1.70
2019-05-03T16:56:45.068Z,3.03
2019-05-03T16:59:50.051Z,1.80
2019-05-03T17:02:55.371Z,3.53
2019-05-03T17:06:22.055Z,1.40
2019-05-03T17:09:44.478Z,1.70
2019-05-03T17:12:49.497Z,1.43
2019-05-03T17:15:54.729Z,2.60
2019-05-03T17:18:59.751Z,1.50
2019-05-03T17:22:05.600Z,4.37
2019-05-03T17:25:10.783Z,2.90
2019-05-03T17:28:15.747Z,1.50
2019-05-03T17:31:20.658Z,1.97
2019-05-03T17:34:25.861Z,2.03
2019-05-03T17:37:30.930Z,2.63
2019-05-03T17:40:50.867Z,2.30
2019-05-03T17:44:05.807Z,2.40
2019-05-03T17:47:16.896Z,1.77
2019-05-03T17:50:22.093Z,2.50
2019-05-03T17:53:52.046Z,4.60
2019-05-03T17:57:00.555Z,3.17
2019-05-03T18:00:21.543Z,2.80
2019-05-03T18:03:28.937Z,2.40
2019-05-03T18:06:38.186Z,4.17
2019-05-03T18:09:44.900Z,4.00
2019-05-03T18:12:50.011Z,3.07
2019-05-03T18:15:55.631Z,2.07
2019-05-03T18:19:00.654Z,2.63
2019-05-03T18:22:05.864Z,2.30
2019-05-03T18:25:10.819Z,2.67
2019-05-03T18:28:16.001Z,2.50
2019-05-03T18:31:21.089Z,2.93
2019-05-03T18:34:26.205Z,2.90
2019-05-03T18:37:31.195Z,3.33
2019-05-03T18:40:36.467Z,3.90
2019-05-03T18:44:05.087Z,5.90
2019-05-03T18:47:14.685Z,4.30
2019-05-03T18:50:19.849Z,3.80
2019-05-03T18:53:25.278Z,2.50
2019-05-03T18:56:30.525Z,2.77
2019-05-03T18:59:35.557Z,2.67
2019-05-03T19:02:40.692Z,3.20
2019-05-03T19:05:47.575Z,2.90
2019-05-03T19:09:20.747Z,3.03
2019-05-03T19:12:57.152Z,3.20
2019-05-03T19:16:07.230Z,3.33
2019-05-03T19:19:13.009Z,3.83
2019-05-03T19:22:18.114Z,3.67
2019-05-03T19:25:25.372Z,3.90
2019-05-03T19:28:30.484Z,3.63
2019-05-03T19:31:36.708Z,3.20
2019-05-03T19:34:50.364Z,3.10
2019-05-03T19:37:55.872Z,3.57
2019-05-03T19:41:01.312Z,3.90
2019-05-03T19:44:06.206Z,3.47
2019-05-03T19:47:11.292Z,3.47
2019-05-03T19:50:16.596Z,3.20
2019-05-03T19:53:49.504Z,4.23
2019-05-03T19:56:55.670Z,3.60
2019-05-03T20:00:02.138Z,3.50
2019-05-03T20:03:12.693Z,3.23
2019-05-03T20:06:27.420Z,3.43
2019-05-03T20:09:32.441Z,3.43
2019-05-03T20:12:37.485Z,3.53
2019-05-03T20:15:44.912Z,2.97
2019-05-03T20:18:49.281Z,3.03
2019-05-03T20:21:56.672Z,4.13
2019-05-03T20:25:01.614Z,4.87
2019-05-03T20:28:06.751Z,4.03
2019-05-03T20:31:11.728Z,4.10
2019-05-03T20:34:16.783Z,4.73
2019-05-03T20:37:21.916Z,3.90
2019-05-03T20:40:26.879Z,4.13
2019-05-03T20:43:41.036Z,4.23
2019-05-03T20:47:04.428Z,4.77
2019-05-03T20:50:16.025Z,3.93
2019-05-03T20:53:21.693Z,6.43
2019-05-03T20:56:26.830Z,4.50
2019-05-03T20:59:42.148Z,5.27
2019-05-03T21:02:50.527Z,5.80
2019-05-03T21:05:45.589Z,4.77
2019-05-03T21:08:53.547Z,4.10
2019-05-03T21:11:57.464Z,2.10
2019-05-03T21:15:04.904Z,3.00
2019-05-03T21:18:20.484Z,2.20
2019-05-03T21:21:47.482Z,1.73
2019-05-03T21:24:57.433Z,1.93
2019-05-03T21:28:02.409Z,2.20
2019-05-03T21:31:07.333Z,1.80
2019-05-03T21:34:12.418Z,2.03
2019-05-03T21:37:17.471Z,2.17
2019-05-03T21:40:24.315Z,2.20
2019-05-03T21:43:29.221Z,2.80
2019-05-03T21:46:42.392Z,3.50
2019-05-03T21:49:47.512Z,2.80
2019-05-03T21:52:54.766Z,2.40
2019-05-03T21:56:00.790Z,4.20
2019-05-03T21:59:05.806Z,4.93
2019-05-03T22:02:10.928Z,4.57
2019-05-03T22:05:16.516Z,2.93
2019-05-03T22:08:21.948Z,2.83
2019-05-03T22:11:26.909Z,2.83
2019-05-03T22:14:37.131Z,2.60
2019-05-03T22:18:01.493Z,2.30
2019-05-03T22:21:28.541Z,2.97
2019-05-03T22:24:42.166Z,3.23
2019-05-03T22:27:47.033Z,2.77
2019-05-03T22:30:52.032Z,2.13
2019-05-03T22:33:57.206Z,2.10
2019-05-03T22:37:02.217Z,2.70
2019-05-03T22:40:07.922Z,1.70
2019-05-03T22:43:14.672Z,3.57
2019-05-03T22:46:38.452Z,1.73
2019-05-03T22:49:45.462Z,1.57
2019-05-03T22:52:50.113Z,1.87
2019-05-03T22:55:55.176Z,1.73
2019-05-03T22:59:00.201Z,1.50
2019-05-03T23:02:05.534Z,1.70
2019-05-03T23:05:10.717Z,1.50
2019-05-03T23:08:15.757Z,1.50
2019-05-03T23:11:20.752Z,1.57
2019-05-03T23:14:25.816Z,2.10
2019-05-03T23:17:30.824Z,1.30
2019-05-03T23:20:45.276Z,0.87
2019-05-03T23:23:51.474Z,1.37
2019-05-03T23:26:56.323Z,1.50
2019-05-03T23:30:01.507Z,1.43
2019-05-03T23:33:06.610Z,2.80
2019-05-03T23:36:11.759Z,1.70
2019-05-03T23:39:16.786Z,2.20
2019-05-03T23:42:21.852Z,2.07
2019-05-03T23:45:26.794Z,2.17
2019-05-03T23:48:31.819Z,2.23
2019-05-03T23:51:49.832Z,1.80
2019-05-03T23:54:55.925Z,1.63
2019-05-03T23:58:00.911Z,1.60
